Detall de PIREP

Printer-friendly versionPDF version

[2014/03/02 10:33:00]
Flight IATA:CT0001
Pilot Number:042
Company ICAO:CAT
Aircraft Type:BE58/A
PAX:2
Departing Airport: LERS
Destination Airport: LEVC
Alternate Airport:LEAL
Online: No
Route:DIRECT
Flight Level:FL050
No Slew and time accel
No pause
Crash detect
Detect pilot in Cockpit between each 30 and 45 minutes
10:33 Zero fuel Weight: 4592 Lbs, Fuel Weight: 850 Lbs
10:33 VATSIM:LERS 021000Z 15005KT 100V200 9999 FEW030 13/07 Q1004
10:33 VATSIM:LEVC 021000Z 30014KT 9999 FEW030 21/08 Q1005 NOSIG
10:35 VOICE CATALONIAN/TESTING P3D
10:40 Parking Brakes off
10:48 Take-off
10:48 Take off Weight: 5435 Lbs
10:48 Wind: 269º @ 008 Knots Heading: 248º
10:48 POS N41º 08´ 54´´ E001º 10´ 16´´
10:48 Gear Up: 106 Knots
10:48 Flaps:1 at 106 Knots
10:48 Flaps:0 at 105 Knots
11:03 Wind:269º@012 Knots Heading: 302º Ground Speed: 151 Knots Altitude 4498 ft
11:18 Wind:269º@012 Knots Heading: 215º Ground Speed: 164 Knots Altitude 4501 ft
11:33 Wind:269º@008 Knots Heading: 215º Ground Speed: 177 Knots Altitude 2995 ft
11:47 Flaps:1 at 140 Knots
11:47 Gear Down: 125 Knots
11:48 Wind:269º@008 Knots Heading: 296º Ground Speed: 116 Knots Altitude 2217 ft
11:51 TouchDown:Rate -150 ft/min Speed: 90 Knots
11:52 Flaps:2 at 43 Knots
11:52 VATSIM:LEVC 021130Z VRB07KT 9999 SCT030 22/06 Q1005 NOSIG
11:52 Land
11:52 Wind:269º@008 Knots
11:52 Heading: 300º
11:52 Flight Duration: 01:04
11:52 Landing Weight: 5269 Lbs
11:52 POS N39º 29´ 19´´ W000º 28´ 48´´
11:54 Parking brakes on
11:54 Block to Block Duration: 01:14
11:54 Final Fuel: 676 Lbls
11:54 Spent Fuel: 174 Lbls
11:54 Flight Length: 167 NM
11:54 TOD Land Length: 167 NM

Exportar CSV

Powered by Drupal - Modified by Danger4k